Aeroporto :
LOGIN :

Iscrizione | Disclaimer

   EN    FR    IT 

 










Sommario :    VFR   VFR Marginale   IFR   IFR Intensivo   IFR Molto Intensivo
Visibilità : 
Base nubi : 
>= 8 km
>= 3000ft
5 / 8 km
1000 / 3000 ft
1500m / 5 km
500 / 1000 ft
800 / 1500m
200 / 500 ft
< 800m
< 200 ft
Simboli :   Temporali  Nebbia  Neve Forte  Precipitazioni Forti  Vento > 20 kt
SIGMETs :   Varie  Temporali  Ghiacco  Turbolenza  Onda orograficha  Ceneri Vulcaniche







- Altitudine del aeroporto : 290 ft
- Codice IATA : LAI
- Carte del aeroporto


LFRO - Lannion

ULTIMO METAR :
  • 180700Z AUTO 09009KT CAVOK 06/04 Q1019 TEMPO 08017G27KT

METARs OBSOLETI :
  • 180630Z AUTO 09009KT CAVOK 06/04 Q1019 TEMPO 08017G27KT
  • 180600Z AUTO 09008KT CAVOK 06/05 Q1019 TEMPO 08017G27KT
  • 180530Z AUTO 08010KT 050V110 9999 FEW017 07/05 Q1018 TEMPO 08017G27KT
  • 180500Z AUTO 08010KT 050V120 CAVOK 07/05 Q1018
  • 180430Z AUTO 07010KT 040V110 CAVOK 07/05 Q1018

TAF TAF LFRO
Valido dal 18 a 06 ore il 19 a 06 ore UTC


180500Z 1806/1906 07010KT CAVOK
TEMPO 1806/1821 08017G27KT
Nessun NOTAM noto per questo aeroporto.



MetMap, La meteo Aeronautica in un colpo d'occhio ! - Copyright ORBIFLY Dicembre 2007 - Disclaimer

ORBIFLY MET'MAP TEAM :

Programmazione e sviluppo : Alexandra Zaïnal
Concezione e sviluppo : Baudouin d'Aumeries
Co-Programmazione e sviluppo : Marc-Olivier Méhu
Supporto tecnico e logistico : Manuel Goepfert
Aiuto per la traduzione : Arnaldo La Scala

Contatto : metmap@orbifly.com




FONTI E CREDITI :

   NOAA